sensor_id;sensor_type;location;lat;lon;timestamp;temperature;humidity
3190;DHT22;1606;51.946;10.558;2023-11-21T00:01:47;11.90;99.90
3190;DHT22;1606;51.946;10.558;2023-11-21T00:04:15;11.90;99.90
3190;DHT22;1606;51.946;10.558;2023-11-21T00:06:45;12.00;99.90
3190;DHT22;1606;51.946;10.558;2023-11-21T00:09:14;12.00;99.90
3190;DHT22;1606;51.946;10.558;2023-11-21T00:11:44;12.00;99.90
3190;DHT22;1606;51.946;10.558;2023-11-21T00:14:12;12.00;99.90
3190;DHT22;1606;51.946;10.558;2023-11-21T00:16:42;11.90;99.90
3190;DHT22;1606;51.946;10.558;2023-11-21T00:19:10;11.90;99.90
3190;DHT22;1606;51.946;10.558;2023-11-21T00:21:38;11.90;99.90
3190;DHT22;1606;51.946;10.558;2023-11-21T00:24:08;12.00;99.90
3190;DHT22;1606;51.946;10.558;2023-11-21T00:26:36;12.10;99.90
3190;DHT22;1606;51.946;10.558;2023-11-21T00:29:04;12.30;99.90
3190;DHT22;1606;51.946;10.558;2023-11-21T00:31:34;12.30;99.90
3190;DHT22;1606;51.946;10.558;2023-11-21T00:34:03;12.20;99.90
3190;DHT22;1606;51.946;10.558;2023-11-21T00:36:32;12.20;99.90
3190;DHT22;1606;51.946;10.558;2023-11-21T00:39:00;12.10;99.90
3190;DHT22;1606;51.946;10.558;2023-11-21T00:41:31;12.20;99.90
3190;DHT22;1606;51.946;10.558;2023-11-21T00:44:00;12.20;99.90
3190;DHT22;1606;51.946;10.558;2023-11-21T00:46:28;12.20;99.90
3190;DHT22;1606;51.946;10.558;2023-11-21T00:48:57;12.10;99.90
3190;DHT22;1606;51.946;10.558;2023-11-21T00:51:25;12.10;99.90
3190;DHT22;1606;51.946;10.558;2023-11-21T00:53:53;12.10;99.90
3190;DHT22;1606;51.946;10.558;2023-11-21T00:56:21;12.20;99.90
3190;DHT22;1606;51.946;10.558;2023-11-21T00:58:51;12.20;99.90
3190;DHT22;1606;51.946;10.558;2023-11-21T01:01:19;12.20;99.90
3190;DHT22;1606;51.946;10.558;2023-11-21T01:03:49;12.20;99.90
3190;DHT22;1606;51.946;10.558;2023-11-21T01:06:17;12.20;99.90
3190;DHT22;1606;51.946;10.558;2023-11-21T01:08:46;12.20;99.90
3190;DHT22;1606;51.946;10.558;2023-11-21T01:11:14;12.10;99.90
3190;DHT22;1606;51.946;10.558;2023-11-21T01:13:42;12.10;99.90
3190;DHT22;1606;51.946;10.558;2023-11-21T01:16:13;12.10;99.90
3190;DHT22;1606;51.946;10.558;2023-11-21T01:18:41;12.10;99.90
3190;DHT22;1606;51.946;10.558;2023-11-21T01:21:10;12.20;99.90
3190;DHT22;1606;51.946;10.558;2023-11-21T01:23:38;12.10;99.90
3190;DHT22;1606;51.946;10.558;2023-11-21T01:26:06;12.20;99.90
3190;DHT22;1606;51.946;10.558;2023-11-21T01:28:35;12.10;99.90
3190;DHT22;1606;51.946;10.558;2023-11-21T01:31:04;12.10;99.90
3190;DHT22;1606;51.946;10.558;2023-11-21T01:33:35;12.10;99.90
3190;DHT22;1606;51.946;10.558;2023-11-21T01:36:04;12.20;99.90
3190;DHT22;1606;51.946;10.558;2023-11-21T01:38:32;12.20;99.90
3190;DHT22;1606;51.946;10.558;2023-11-21T01:41:00;12.10;99.90
3190;DHT22;1606;51.946;10.558;2023-11-21T01:43:29;12.00;99.90
3190;DHT22;1606;51.946;10.558;2023-11-21T01:45:58;12.10;99.90
3190;DHT22;1606;51.946;10.558;2023-11-21T01:48:27;12.10;99.90
3190;DHT22;1606;51.946;10.558;2023-11-21T01:50:57;12.30;99.90
3190;DHT22;1606;51.946;10.558;2023-11-21T01:53:26;12.20;99.90
3190;DHT22;1606;51.946;10.558;2023-11-21T01:55:55;12.10;99.90
3190;DHT22;1606;51.946;10.558;2023-11-21T01:58:24;12.10;99.90
3190;DHT22;1606;51.946;10.558;2023-11-21T02:00:52;12.00;99.90
3190;DHT22;1606;51.946;10.558;2023-11-21T02:03:23;12.00;99.90
3190;DHT22;1606;51.946;10.558;2023-11-21T02:05:51;11.90;99.90
3190;DHT22;1606;51.946;10.558;2023-11-21T02:08:21;12.00;99.90
3190;DHT22;1606;51.946;10.558;2023-11-21T02:10:49;12.10;99.90
3190;DHT22;1606;51.946;10.558;2023-11-21T02:13:17;12.10;99.90
3190;DHT22;1606;51.946;10.558;2023-11-21T02:15:45;12.20;99.90
3190;DHT22;1606;51.946;10.558;2023-11-21T02:18:16;12.20;99.90
3190;DHT22;1606;51.946;10.558;2023-11-21T02:20:44;12.30;99.90
3190;DHT22;1606;51.946;10.558;2023-11-21T02:23:15;12.40;99.90
3190;DHT22;1606;51.946;10.558;2023-11-21T02:25:44;12.40;99.90
3190;DHT22;1606;51.946;10.558;2023-11-21T02:28:14;12.40;99.90
3190;DHT22;1606;51.946;10.558;2023-11-21T02:30:53;12.40;99.90
3190;DHT22;1606;51.946;10.558;2023-11-21T02:33:23;12.40;99.90
3190;DHT22;1606;51.946;10.558;2023-11-21T02:35:51;12.40;99.90
3190;DHT22;1606;51.946;10.558;2023-11-21T02:38:23;12.40;99.90
3190;DHT22;1606;51.946;10.558;2023-11-21T02:40:51;12.40;99.90
3190;DHT22;1606;51.946;10.558;2023-11-21T02:43:20;12.40;99.90
3190;DHT22;1606;51.946;10.558;2023-11-21T02:45:48;12.40;99.90
3190;DHT22;1606;51.946;10.558;2023-11-21T02:48:16;12.40;99.90
3190;DHT22;1606;51.946;10.558;2023-11-21T02:50:44;12.30;99.90
3190;DHT22;1606;51.946;10.558;2023-11-21T02:53:12;12.10;99.90
3190;DHT22;1606;51.946;10.558;2023-11-21T02:55:41;12.00;99.90
3190;DHT22;1606;51.946;10.558;2023-11-21T02:58:09;11.80;99.90
3190;DHT22;1606;51.946;10.558;2023-11-21T03:00:37;11.70;99.90
3190;DHT22;1606;51.946;10.558;2023-11-21T03:03:07;11.60;99.90
3190;DHT22;1606;51.946;10.558;2023-11-21T03:05:35;11.40;99.90
3190;DHT22;1606;51.946;10.558;2023-11-21T03:08:03;11.60;99.90
3190;DHT22;1606;51.946;10.558;2023-11-21T03:10:31;11.70;99.90
3190;DHT22;1606;51.946;10.558;2023-11-21T03:13:01;11.80;99.90
3190;DHT22;1606;51.946;10.558;2023-11-21T03:15:29;12.00;99.90
3190;DHT22;1606;51.946;10.558;2023-11-21T03:17:59;12.10;99.90
3190;DHT22;1606;51.946;10.558;2023-11-21T03:20:27;12.20;99.90
3190;DHT22;1606;51.946;10.558;2023-11-21T03:22:55;12.10;99.90
3190;DHT22;1606;51.946;10.558;2023-11-21T03:25:23;12.00;99.90
3190;DHT22;1606;51.946;10.558;2023-11-21T03:27:52;11.90;99.90
3190;DHT22;1606;51.946;10.558;2023-11-21T03:30:21;12.00;99.90
3190;DHT22;1606;51.946;10.558;2023-11-21T03:32:49;12.10;99.90
3190;DHT22;1606;51.946;10.558;2023-11-21T03:35:18;12.20;99.90
3190;DHT22;1606;51.946;10.558;2023-11-21T03:37:47;12.10;99.90
3190;DHT22;1606;51.946;10.558;2023-11-21T03:40:15;12.10;99.90
3190;DHT22;1606;51.946;10.558;2023-11-21T03:42:43;12.10;99.90
3190;DHT22;1606;51.946;10.558;2023-11-21T03:45:12;12.20;99.90
3190;DHT22;1606;51.946;10.558;2023-11-21T03:47:42;12.20;99.90
3190;DHT22;1606;51.946;10.558;2023-11-21T03:50:11;11.90;99.90
3190;DHT22;1606;51.946;10.558;2023-11-21T03:52:39;11.90;99.90
3190;DHT22;1606;51.946;10.558;2023-11-21T03:55:08;11.80;99.90
3190;DHT22;1606;51.946;10.558;2023-11-21T03:57:37;11.80;99.90
3190;DHT22;1606;51.946;10.558;2023-11-21T04:00:06;11.90;99.90
3190;DHT22;1606;51.946;10.558;2023-11-21T04:02:35;11.90;99.90
3190;DHT22;1606;51.946;10.558;2023-11-21T04:05:06;12.00;99.90
3190;DHT22;1606;51.946;10.558;2023-11-21T04:07:35;11.90;99.90
3190;DHT22;1606;51.946;10.558;2023-11-21T04:10:05;12.10;99.90
3190;DHT22;1606;51.946;10.558;2023-11-21T04:12:36;12.10;99.90
3190;DHT22;1606;51.946;10.558;2023-11-21T04:15:04;12.20;99.90
3190;DHT22;1606;51.946;10.558;2023-11-21T04:17:35;12.10;99.90
3190;DHT22;1606;51.946;10.558;2023-11-21T04:20:07;11.80;99.90
3190;DHT22;1606;51.946;10.558;2023-11-21T04:22:39;11.80;99.90
3190;DHT22;1606;51.946;10.558;2023-11-21T04:25:11;11.90;99.90
3190;DHT22;1606;51.946;10.558;2023-11-21T04:27:41;11.70;99.90
3190;DHT22;1606;51.946;10.558;2023-11-21T04:30:11;11.60;99.90
3190;DHT22;1606;51.946;10.558;2023-11-21T04:32:39;11.40;99.90
3190;DHT22;1606;51.946;10.558;2023-11-21T04:35:10;11.60;99.90
3190;DHT22;1606;51.946;10.558;2023-11-21T04:37:38;11.70;99.90
3190;DHT22;1606;51.946;10.558;2023-11-21T04:40:08;11.80;99.90
3190;DHT22;1606;51.946;10.558;2023-11-21T04:42:36;11.70;99.90
3190;DHT22;1606;51.946;10.558;2023-11-21T04:45:05;11.60;99.90
3190;DHT22;1606;51.946;10.558;2023-11-21T04:47:36;11.70;99.90
3190;DHT22;1606;51.946;10.558;2023-11-21T04:50:06;11.80;99.90
3190;DHT22;1606;51.946;10.558;2023-11-21T04:52:35;11.60;99.90
3190;DHT22;1606;51.946;10.558;2023-11-21T04:55:04;11.40;99.90
3190;DHT22;1606;51.946;10.558;2023-11-21T04:57:33;11.50;99.90
3190;DHT22;1606;51.946;10.558;2023-11-21T05:00:01;11.60;99.90
3190;DHT22;1606;51.946;10.558;2023-11-21T05:02:32;11.50;99.90
3190;DHT22;1606;51.946;10.558;2023-11-21T05:05:02;11.50;99.90
3190;DHT22;1606;51.946;10.558;2023-11-21T05:07:32;11.40;99.90
3190;DHT22;1606;51.946;10.558;2023-11-21T05:10:04;11.40;99.90
3190;DHT22;1606;51.946;10.558;2023-11-21T05:12:35;11.40;99.90
3190;DHT22;1606;51.946;10.558;2023-11-21T05:15:05;11.40;99.90
3190;DHT22;1606;51.946;10.558;2023-11-21T05:17:36;11.50;99.90
3190;DHT22;1606;51.946;10.558;2023-11-21T05:20:07;11.70;99.90
3190;DHT22;1606;51.946;10.558;2023-11-21T05:22:36;11.90;99.90
3190;DHT22;1606;51.946;10.558;2023-11-21T05:25:07;12.00;99.90
3190;DHT22;1606;51.946;10.558;2023-11-21T05:27:35;12.00;99.90
3190;DHT22;1606;51.946;10.558;2023-11-21T05:30:04;12.00;99.90
3190;DHT22;1606;51.946;10.558;2023-11-21T05:32:33;12.00;99.90
3190;DHT22;1606;51.946;10.558;2023-11-21T05:35:01;12.10;99.90
3190;DHT22;1606;51.946;10.558;2023-11-21T05:37:29;12.10;99.90
3190;DHT22;1606;51.946;10.558;2023-11-21T05:39:57;12.10;99.90
3190;DHT22;1606;51.946;10.558;2023-11-21T05:42:27;12.00;99.90
3190;DHT22;1606;51.946;10.558;2023-11-21T05:44:57;12.00;99.90
3190;DHT22;1606;51.946;10.558;2023-11-21T05:47:25;12.00;99.90
3190;DHT22;1606;51.946;10.558;2023-11-21T05:49:54;11.80;99.90
3190;DHT22;1606;51.946;10.558;2023-11-21T05:52:22;11.70;99.90
3190;DHT22;1606;51.946;10.558;2023-11-21T05:54:50;11.60;99.90
3190;DHT22;1606;51.946;10.558;2023-11-21T05:57:18;11.50;99.90
3190;DHT22;1606;51.946;10.558;2023-11-21T05:59:48;11.40;99.90
3190;DHT22;1606;51.946;10.558;2023-11-21T06:02:16;11.40;99.90
3190;DHT22;1606;51.946;10.558;2023-11-21T06:04:45;11.40;99.90
3190;DHT22;1606;51.946;10.558;2023-11-21T06:07:13;11.60;99.90
3190;DHT22;1606;51.946;10.558;2023-11-21T06:09:41;11.60;99.90
3190;DHT22;1606;51.946;10.558;2023-11-21T06:12:10;11.80;99.90
3190;DHT22;1606;51.946;10.558;2023-11-21T06:14:38;11.80;99.90
3190;DHT22;1606;51.946;10.558;2023-11-21T06:17:07;11.90;99.90
3190;DHT22;1606;51.946;10.558;2023-11-21T06:19:36;11.90;99.90
3190;DHT22;1606;51.946;10.558;2023-11-21T06:22:04;12.00;99.90
3190;DHT22;1606;51.946;10.558;2023-11-21T06:24:32;12.00;99.90
3190;DHT22;1606;51.946;10.558;2023-11-21T06:27:00;12.00;99.90
3190;DHT22;1606;51.946;10.558;2023-11-21T06:29:31;12.00;99.90
3190;DHT22;1606;51.946;10.558;2023-11-21T06:31:59;12.10;99.90
3190;DHT22;1606;51.946;10.558;2023-11-21T06:34:33;12.10;99.90
3190;DHT22;1606;51.946;10.558;2023-11-21T06:37:01;12.10;99.90
3190;DHT22;1606;51.946;10.558;2023-11-21T06:39:29;12.20;99.90
3190;DHT22;1606;51.946;10.558;2023-11-21T06:41:57;12.30;99.90
3190;DHT22;1606;51.946;10.558;2023-11-21T06:44:26;12.30;99.90
3190;DHT22;1606;51.946;10.558;2023-11-21T06:46:54;12.30;99.90
3190;DHT22;1606;51.946;10.558;2023-11-21T06:49:22;12.30;99.90
3190;DHT22;1606;51.946;10.558;2023-11-21T06:51:52;12.20;99.90
3190;DHT22;1606;51.946;10.558;2023-11-21T06:54:21;12.10;99.90
3190;DHT22;1606;51.946;10.558;2023-11-21T06:56:49;12.20;99.90
3190;DHT22;1606;51.946;10.558;2023-11-21T06:59:20;12.20;99.90
3190;DHT22;1606;51.946;10.558;2023-11-21T07:01:48;12.10;99.90
3190;DHT22;1606;51.946;10.558;2023-11-21T07:04:16;11.80;99.90
3190;DHT22;1606;51.946;10.558;2023-11-21T07:06:45;12.00;99.90
3190;DHT22;1606;51.946;10.558;2023-11-21T07:09:14;11.90;99.90
3190;DHT22;1606;51.946;10.558;2023-11-21T07:11:42;11.90;99.90
3190;DHT22;1606;51.946;10.558;2023-11-21T07:14:10;11.80;99.90
3190;DHT22;1606;51.946;10.558;2023-11-21T07:16:38;11.90;99.90
3190;DHT22;1606;51.946;10.558;2023-11-21T07:19:07;11.80;99.90
3190;DHT22;1606;51.946;10.558;2023-11-21T07:21:36;11.70;99.90
3190;DHT22;1606;51.946;10.558;2023-11-21T07:24:05;11.70;99.90
3190;DHT22;1606;51.946;10.558;2023-11-21T07:26:35;11.80;99.90
3190;DHT22;1606;51.946;10.558;2023-11-21T07:29:03;11.60;99.90
3190;DHT22;1606;51.946;10.558;2023-11-21T07:31:32;11.60;99.90
3190;DHT22;1606;51.946;10.558;2023-11-21T07:34:02;11.70;99.90
3190;DHT22;1606;51.946;10.558;2023-11-21T07:36:30;11.80;99.90
3190;DHT22;1606;51.946;10.558;2023-11-21T07:38:58;11.80;99.90
3190;DHT22;1606;51.946;10.558;2023-11-21T07:41:26;11.90;99.90
3190;DHT22;1606;51.946;10.558;2023-11-21T07:43:59;12.00;99.90
3190;DHT22;1606;51.946;10.558;2023-11-21T07:46:27;12.10;99.90
3190;DHT22;1606;51.946;10.558;2023-11-21T07:48:55;12.10;99.90
3190;DHT22;1606;51.946;10.558;2023-11-21T07:51:23;12.10;99.90
3190;DHT22;1606;51.946;10.558;2023-11-21T07:53:51;12.00;99.90
3190;DHT22;1606;51.946;10.558;2023-11-21T07:56:19;12.10;99.90
3190;DHT22;1606;51.946;10.558;2023-11-21T07:58:47;12.20;99.90
3190;DHT22;1606;51.946;10.558;2023-11-21T08:01:20;12.20;99.90
3190;DHT22;1606;51.946;10.558;2023-11-21T08:03:47;12.10;99.90
3190;DHT22;1606;51.946;10.558;2023-11-21T08:06:19;12.10;99.90
3190;DHT22;1606;51.946;10.558;2023-11-21T08:08:47;12.00;99.90
3190;DHT22;1606;51.946;10.558;2023-11-21T08:11:16;11.70;99.90
3190;DHT22;1606;51.946;10.558;2023-11-21T08:13:45;11.40;99.90
3190;DHT22;1606;51.946;10.558;2023-11-21T08:16:14;11.30;99.90
3190;DHT22;1606;51.946;10.558;2023-11-21T08:18:45;11.40;99.90
3190;DHT22;1606;51.946;10.558;2023-11-21T08:21:13;11.20;99.90
3190;DHT22;1606;51.946;10.558;2023-11-21T08:23:40;11.00;99.90
3190;DHT22;1606;51.946;10.558;2023-11-21T08:26:08;11.00;99.90
3190;DHT22;1606;51.946;10.558;2023-11-21T08:28:36;10.60;99.90
3190;DHT22;1606;51.946;10.558;2023-11-21T08:31:04;10.50;99.90
3190;DHT22;1606;51.946;10.558;2023-11-21T08:33:32;10.50;99.90
3190;DHT22;1606;51.946;10.558;2023-11-21T08:36:07;10.60;99.90
3190;DHT22;1606;51.946;10.558;2023-11-21T08:38:35;10.60;99.90
3190;DHT22;1606;51.946;10.558;2023-11-21T08:41:05;10.70;99.90
3190;DHT22;1606;51.946;10.558;2023-11-21T08:43:35;10.70;99.90
3190;DHT22;1606;51.946;10.558;2023-11-21T08:46:07;10.70;99.90
3190;DHT22;1606;51.946;10.558;2023-11-21T08:48:36;10.50;99.90
3190;DHT22;1606;51.946;10.558;2023-11-21T08:51:06;10.40;99.90
3190;DHT22;1606;51.946;10.558;2023-11-21T08:53:34;10.30;99.90
3190;DHT22;1606;51.946;10.558;2023-11-21T08:56:02;10.30;99.90
3190;DHT22;1606;51.946;10.558;2023-11-21T08:58:31;10.40;99.90
3190;DHT22;1606;51.946;10.558;2023-11-21T09:00:59;10.30;99.90
3190;DHT22;1606;51.946;10.558;2023-11-21T09:03:27;10.10;99.90
3190;DHT22;1606;51.946;10.558;2023-11-21T09:05:56;10.00;99.90
3190;DHT22;1606;51.946;10.558;2023-11-21T09:08:26;9.90;99.90
3190;DHT22;1606;51.946;10.558;2023-11-21T09:10:55;9.70;99.90
3190;DHT22;1606;51.946;10.558;2023-11-21T09:13:23;9.70;99.90
3190;DHT22;1606;51.946;10.558;2023-11-21T09:15:52;9.90;99.90
3190;DHT22;1606;51.946;10.558;2023-11-21T09:18:20;9.70;99.90
3190;DHT22;1606;51.946;10.558;2023-11-21T09:20:48;9.60;99.90
3190;DHT22;1606;51.946;10.558;2023-11-21T09:23:16;9.40;99.90
3190;DHT22;1606;51.946;10.558;2023-11-21T09:25:46;9.60;99.90
3190;DHT22;1606;51.946;10.558;2023-11-21T09:28:16;9.70;99.90
3190;DHT22;1606;51.946;10.558;2023-11-21T09:30:44;9.70;99.90
3190;DHT22;1606;51.946;10.558;2023-11-21T09:33:12;9.40;99.90
3190;DHT22;1606;51.946;10.558;2023-11-21T09:35:40;9.60;99.90
3190;DHT22;1606;51.946;10.558;2023-11-21T09:38:10;9.90;99.90
3190;DHT22;1606;51.946;10.558;2023-11-21T09:40:38;10.10;99.90
3190;DHT22;1606;51.946;10.558;2023-11-21T09:43:12;10.10;99.90
3190;DHT22;1606;51.946;10.558;2023-11-21T09:45:45;10.00;99.90
3190;DHT22;1606;51.946;10.558;2023-11-21T09:48:14;9.90;99.90
3190;DHT22;1606;51.946;10.558;2023-11-21T09:50:43;9.80;99.90
3190;DHT22;1606;51.946;10.558;2023-11-21T09:53:16;10.10;99.90
3190;DHT22;1606;51.946;10.558;2023-11-21T09:55:49;10.20;99.90
3190;DHT22;1606;51.946;10.558;2023-11-21T09:58:20;10.20;99.90
3190;DHT22;1606;51.946;10.558;2023-11-21T10:00:51;10.30;99.90
3190;DHT22;1606;51.946;10.558;2023-11-21T10:03:20;10.40;99.90
3190;DHT22;1606;51.946;10.558;2023-11-21T10:05:50;10.40;99.90
3190;DHT22;1606;51.946;10.558;2023-11-21T10:08:21;10.30;99.90
3190;DHT22;1606;51.946;10.558;2023-11-21T10:10:53;10.40;99.90
3190;DHT22;1606;51.946;10.558;2023-11-21T10:13:24;10.40;99.90
3190;DHT22;1606;51.946;10.558;2023-11-21T10:15:52;10.70;99.90
3190;DHT22;1606;51.946;10.558;2023-11-21T10:18:20;10.80;99.90
3190;DHT22;1606;51.946;10.558;2023-11-21T10:20:52;10.90;99.90
3190;DHT22;1606;51.946;10.558;2023-11-21T10:23:21;11.00;99.90
3190;DHT22;1606;51.946;10.558;2023-11-21T10:25:50;11.10;99.90
3190;DHT22;1606;51.946;10.558;2023-11-21T10:28:20;11.10;99.90
3190;DHT22;1606;51.946;10.558;2023-11-21T10:30:50;11.10;99.90
3190;DHT22;1606;51.946;10.558;2023-11-21T10:33:27;11.00;99.90
3190;DHT22;1606;51.946;10.558;2023-11-21T10:35:55;11.00;99.90
3190;DHT22;1606;51.946;10.558;2023-11-21T10:38:23;11.00;99.90
3190;DHT22;1606;51.946;10.558;2023-11-21T10:40:54;10.90;99.90
3190;DHT22;1606;51.946;10.558;2023-11-21T10:43:25;10.80;99.90
3190;DHT22;1606;51.946;10.558;2023-11-21T10:45:57;10.80;99.90
3190;DHT22;1606;51.946;10.558;2023-11-21T10:48:27;10.90;99.90
3190;DHT22;1606;51.946;10.558;2023-11-21T10:50:55;11.00;99.90
3190;DHT22;1606;51.946;10.558;2023-11-21T10:53:23;10.90;99.90
3190;DHT22;1606;51.946;10.558;2023-11-21T10:56:01;10.80;99.90
3190;DHT22;1606;51.946;10.558;2023-11-21T10:58:30;10.60;99.90
3190;DHT22;1606;51.946;10.558;2023-11-21T11:01:02;10.50;99.90
3190;DHT22;1606;51.946;10.558;2023-11-21T11:03:32;10.50;99.90
3190;DHT22;1606;51.946;10.558;2023-11-21T11:06:05;10.30;99.90
3190;DHT22;1606;51.946;10.558;2023-11-21T11:08:38;10.30;99.90
3190;DHT22;1606;51.946;10.558;2023-11-21T11:11:07;10.40;99.90
3190;DHT22;1606;51.946;10.558;2023-11-21T11:13:37;10.60;99.90
3190;DHT22;1606;51.946;10.558;2023-11-21T11:16:08;10.60;99.90
3190;DHT22;1606;51.946;10.558;2023-11-21T11:18:37;10.60;99.90
3190;DHT22;1606;51.946;10.558;2023-11-21T11:21:14;10.70;99.90
3190;DHT22;1606;51.946;10.558;2023-11-21T11:24:03;10.80;99.90
3190;DHT22;1606;51.946;10.558;2023-11-21T11:26:42;10.80;99.90
3190;DHT22;1606;51.946;10.558;2023-11-21T11:29:18;11.00;99.90
3190;DHT22;1606;51.946;10.558;2023-11-21T11:32:03;10.80;99.90
3190;DHT22;1606;51.946;10.558;2023-11-21T11:34:36;10.70;99.90
3190;DHT22;1606;51.946;10.558;2023-11-21T11:37:07;10.70;99.90
3190;DHT22;1606;51.946;10.558;2023-11-21T11:39:37;10.60;99.90
3190;DHT22;1606;51.946;10.558;2023-11-21T11:42:07;10.60;99.90
3190;DHT22;1606;51.946;10.558;2023-11-21T11:44:50;10.60;99.90
3190;DHT22;1606;51.946;10.558;2023-11-21T11:47:25;10.80;99.90
3190;DHT22;1606;51.946;10.558;2023-11-21T11:50:01;10.70;99.90
3190;DHT22;1606;51.946;10.558;2023-11-21T11:52:38;10.80;99.90
3190;DHT22;1606;51.946;10.558;2023-11-21T11:55:08;10.80;99.90
3190;DHT22;1606;51.946;10.558;2023-11-21T11:57:38;10.60;99.90
3190;DHT22;1606;51.946;10.558;2023-11-21T12:00:14;10.50;99.90
3190;DHT22;1606;51.946;10.558;2023-11-21T12:02:50;10.40;99.90
3190;DHT22;1606;51.946;10.558;2023-11-21T12:05:20;10.50;99.90
3190;DHT22;1606;51.946;10.558;2023-11-21T12:07:50;10.70;99.90
3190;DHT22;1606;51.946;10.558;2023-11-21T12:10:21;10.70;99.90
3190;DHT22;1606;51.946;10.558;2023-11-21T12:12:52;10.60;99.90
3190;DHT22;1606;51.946;10.558;2023-11-21T12:15:20;10.70;99.90
3190;DHT22;1606;51.946;10.558;2023-11-21T12:17:50;10.60;99.90
3190;DHT22;1606;51.946;10.558;2023-11-21T12:20:19;10.60;99.90
3190;DHT22;1606;51.946;10.558;2023-11-21T12:22:48;10.40;99.90
3190;DHT22;1606;51.946;10.558;2023-11-21T12:25:18;10.50;99.90
3190;DHT22;1606;51.946;10.558;2023-11-21T12:27:47;10.60;99.90
3190;DHT22;1606;51.946;10.558;2023-11-21T12:30:17;10.70;99.90
3190;DHT22;1606;51.946;10.558;2023-11-21T12:32:50;10.80;99.90
3190;DHT22;1606;51.946;10.558;2023-11-21T12:35:20;10.80;99.90
3190;DHT22;1606;51.946;10.558;2023-11-21T12:37:48;10.80;99.90
3190;DHT22;1606;51.946;10.558;2023-11-21T12:40:17;10.90;99.90
3190;DHT22;1606;51.946;10.558;2023-11-21T12:42:47;11.00;99.90
3190;DHT22;1606;51.946;10.558;2023-11-21T12:45:20;11.10;99.90
3190;DHT22;1606;51.946;10.558;2023-11-21T12:47:55;11.10;99.90
3190;DHT22;1606;51.946;10.558;2023-11-21T12:50:24;11.10;99.90
3190;DHT22;1606;51.946;10.558;2023-11-21T12:52:59;10.90;99.90
3190;DHT22;1606;51.946;10.558;2023-11-21T12:55:30;10.80;99.90
3190;DHT22;1606;51.946;10.558;2023-11-21T12:58:01;10.40;99.90
3190;DHT22;1606;51.946;10.558;2023-11-21T13:00:37;10.30;99.90
3190;DHT22;1606;51.946;10.558;2023-11-21T13:03:09;10.20;99.90
3190;DHT22;1606;51.946;10.558;2023-11-21T13:05:40;10.30;99.90
3190;DHT22;1606;51.946;10.558;2023-11-21T13:08:13;10.40;99.90
3190;DHT22;1606;51.946;10.558;2023-11-21T13:10:47;10.40;99.90
3190;DHT22;1606;51.946;10.558;2023-11-21T13:13:16;10.40;99.90
3190;DHT22;1606;51.946;10.558;2023-11-21T13:15:51;10.40;99.90
3190;DHT22;1606;51.946;10.558;2023-11-21T13:18:23;10.40;99.90
3190;DHT22;1606;51.946;10.558;2023-11-21T13:20:53;10.20;99.90
3190;DHT22;1606;51.946;10.558;2023-11-21T13:23:23;10.10;99.90
3190;DHT22;1606;51.946;10.558;2023-11-21T13:25:51;10.20;99.90
3190;DHT22;1606;51.946;10.558;2023-11-21T13:28:30;10.10;99.90
3190;DHT22;1606;51.946;10.558;2023-11-21T13:31:00;9.90;99.90
3190;DHT22;1606;51.946;10.558;2023-11-21T13:33:38;10.10;99.90
3190;DHT22;1606;51.946;10.558;2023-11-21T13:36:09;10.20;99.90
3190;DHT22;1606;51.946;10.558;2023-11-21T13:38:40;10.20;99.90
3190;DHT22;1606;51.946;10.558;2023-11-21T13:41:11;10.40;99.90
3190;DHT22;1606;51.946;10.558;2023-11-21T13:43:41;10.50;99.90
3190;DHT22;1606;51.946;10.558;2023-11-21T13:46:17;10.60;99.90
3190;DHT22;1606;51.946;10.558;2023-11-21T13:48:50;10.70;99.90
3190;DHT22;1606;51.946;10.558;2023-11-21T13:51:23;10.40;99.90
3190;DHT22;1606;51.946;10.558;2023-11-21T13:54:03;10.20;99.90
3190;DHT22;1606;51.946;10.558;2023-11-21T13:56:36;10.00;99.90
3190;DHT22;1606;51.946;10.558;2023-11-21T13:59:06;10.10;99.90
3190;DHT22;1606;51.946;10.558;2023-11-21T14:01:45;10.20;99.90
3190;DHT22;1606;51.946;10.558;2023-11-21T14:04:24;10.20;99.90
3190;DHT22;1606;51.946;10.558;2023-11-21T14:07:13;10.10;99.90
3190;DHT22;1606;51.946;10.558;2023-11-21T14:09:59;10.20;99.90
3190;DHT22;1606;51.946;10.558;2023-11-21T14:12:27;10.20;99.90
3190;DHT22;1606;51.946;10.558;2023-11-21T14:15:00;10.30;99.90
3190;DHT22;1606;51.946;10.558;2023-11-21T14:17:30;10.20;99.90
3190;DHT22;1606;51.946;10.558;2023-11-21T14:19:59;10.30;99.90
3190;DHT22;1606;51.946;10.558;2023-11-21T14:22:29;10.30;99.90
3190;DHT22;1606;51.946;10.558;2023-11-21T14:24:58;10.20;99.90
3190;DHT22;1606;51.946;10.558;2023-11-21T14:27:31;9.90;99.90
3190;DHT22;1606;51.946;10.558;2023-11-21T14:30:02;9.90;99.90
3190;DHT22;1606;51.946;10.558;2023-11-21T14:32:32;9.90;99.90
3190;DHT22;1606;51.946;10.558;2023-11-21T14:35:01;9.90;99.90
3190;DHT22;1606;51.946;10.558;2023-11-21T14:37:30;9.80;99.90
3190;DHT22;1606;51.946;10.558;2023-11-21T14:39:58;9.80;99.90
3190;DHT22;1606;51.946;10.558;2023-11-21T14:42:26;9.80;99.90
3190;DHT22;1606;51.946;10.558;2023-11-21T14:44:56;9.80;99.90
3190;DHT22;1606;51.946;10.558;2023-11-21T14:47:29;9.80;99.90
3190;DHT22;1606;51.946;10.558;2023-11-21T14:50:00;9.70;99.90
3190;DHT22;1606;51.946;10.558;2023-11-21T14:52:49;9.70;99.90
3190;DHT22;1606;51.946;10.558;2023-11-21T14:55:26;9.70;99.90
3190;DHT22;1606;51.946;10.558;2023-11-21T14:57:59;9.60;99.90
3190;DHT22;1606;51.946;10.558;2023-11-21T15:00:31;9.70;99.90
3190;DHT22;1606;51.946;10.558;2023-11-21T15:03:08;9.80;99.90
3190;DHT22;1606;51.946;10.558;2023-11-21T15:05:38;9.80;99.90
3190;DHT22;1606;51.946;10.558;2023-11-21T15:08:07;9.90;99.90
3190;DHT22;1606;51.946;10.558;2023-11-21T15:10:43;10.00;99.90
3190;DHT22;1606;51.946;10.558;2023-11-21T15:13:15;10.10;99.90
3190;DHT22;1606;51.946;10.558;2023-11-21T15:15:44;10.20;99.90
3190;DHT22;1606;51.946;10.558;2023-11-21T15:18:12;10.20;99.90
3190;DHT22;1606;51.946;10.558;2023-11-21T15:20:41;10.20;99.90
3190;DHT22;1606;51.946;10.558;2023-11-21T15:23:11;10.00;99.90
3190;DHT22;1606;51.946;10.558;2023-11-21T15:25:40;9.90;99.90
3190;DHT22;1606;51.946;10.558;2023-11-21T15:28:08;9.90;99.90
3190;DHT22;1606;51.946;10.558;2023-11-21T15:30:36;9.90;99.90
3190;DHT22;1606;51.946;10.558;2023-11-21T15:33:04;10.00;99.90
3190;DHT22;1606;51.946;10.558;2023-11-21T15:35:34;9.90;99.90
3190;DHT22;1606;51.946;10.558;2023-11-21T15:38:06;9.80;99.90
3190;DHT22;1606;51.946;10.558;2023-11-21T15:40:35;9.80;99.90
3190;DHT22;1606;51.946;10.558;2023-11-21T15:43:03;9.80;99.90
3190;DHT22;1606;51.946;10.558;2023-11-21T15:45:32;9.80;99.90
3190;DHT22;1606;51.946;10.558;2023-11-21T15:48:00;9.70;99.90
3190;DHT22;1606;51.946;10.558;2023-11-21T15:50:29;9.50;99.90
3190;DHT22;1606;51.946;10.558;2023-11-21T15:52:58;9.30;99.90
3190;DHT22;1606;51.946;10.558;2023-11-21T15:55:28;9.30;99.90
3190;DHT22;1606;51.946;10.558;2023-11-21T15:57:56;9.20;99.90
3190;DHT22;1606;51.946;10.558;2023-11-21T16:00:28;9.00;99.90
3190;DHT22;1606;51.946;10.558;2023-11-21T16:02:56;9.00;99.90
3190;DHT22;1606;51.946;10.558;2023-11-21T16:05:25;8.70;99.90